Terminal Aerodrome Forecast
Issued by NWS Portland, OR

Home | Current Version | Previous Version | Text Only | Print | Product List | Glossary On
Versions: 1 2 3 4 5 6 7 8 9 10 11 12 13 14 15 16 17 18 19 20 21 22 23 24 25 26 27 28
000
FTUS46 KPQR 231734
TAFSLE
TAF
KSLE 231734Z 2318/2418 36008KT P6SM SCT040
     FM232200 35010G17KT P6SM SCT250
     FM240400 34008KT P6SM SCT250
     FM240800 VRB03KT P6SM SCT250=

USA.gov is the U.S. government's official web portal to all federal, state and local government web resources and services.